sensor_id;sensor_type;location;lat;lon;timestamp;P1;durP1;ratioP1;P2;durP2;ratioP2
3916;SDS011;1973;50.518;7.318;2024-03-23T00:55:29;9.80;;;8.23;;
3916;SDS011;1973;50.518;7.318;2024-03-23T00:57:55;8.50;;;7.20;;
3916;SDS011;1973;50.518;7.318;2024-03-23T01:00:21;9.13;;;7.70;;
3916;SDS011;1973;50.518;7.318;2024-03-23T01:02:46;9.90;;;7.60;;
3916;SDS011;1973;50.518;7.318;2024-03-23T01:05:12;10.13;;;8.07;;
3916;SDS011;1973;50.518;7.318;2024-03-23T01:07:37;11.80;;;7.77;;
3916;SDS011;1973;50.518;7.318;2024-03-23T01:10:03;10.73;;;7.30;;
3916;SDS011;1973;50.518;7.318;2024-03-23T01:12:29;12.20;;;7.80;;
3916;SDS011;1973;50.518;7.318;2024-03-23T01:14:54;11.63;;;6.90;;
3916;SDS011;1973;50.518;7.318;2024-03-23T01:17:20;11.27;;;8.07;;
3916;SDS011;1973;50.518;7.318;2024-03-23T01:19:46;8.50;;;6.23;;
3916;SDS011;1973;50.518;7.318;2024-03-23T01:22:11;8.67;;;7.43;;
3916;SDS011;1973;50.518;7.318;2024-03-23T01:24:37;10.00;;;7.20;;
3916;SDS011;1973;50.518;7.318;2024-03-23T01:27:03;11.30;;;7.30;;
3916;SDS011;1973;50.518;7.318;2024-03-23T01:29:29;12.50;;;8.40;;
3916;SDS011;1973;50.518;7.318;2024-03-23T01:31:54;11.87;;;7.97;;
3916;SDS011;1973;50.518;7.318;2024-03-23T01:34:20;12.30;;;7.93;;
3916;SDS011;1973;50.518;7.318;2024-03-23T01:36:46;10.93;;;7.40;;
3916;SDS011;1973;50.518;7.318;2024-03-23T01:39:12;12.47;;;7.90;;
3916;SDS011;1973;50.518;7.318;2024-03-23T01:41:39;15.27;;;7.90;;
3916;SDS011;1973;50.518;7.318;2024-03-23T01:44:08;12.60;;;8.23;;
3916;SDS011;1973;50.518;7.318;2024-03-23T01:46:37;11.63;;;7.90;;
3916;SDS011;1973;50.518;7.318;2024-03-23T01:49:04;11.00;;;8.33;;
3916;SDS011;1973;50.518;7.318;2024-03-23T01:51:30;10.80;;;6.77;;
3916;SDS011;1973;50.518;7.318;2024-03-23T01:53:57;13.30;;;7.00;;
3916;SDS011;1973;50.518;7.318;2024-03-23T01:56:28;9.53;;;7.50;;
3916;SDS011;1973;50.518;7.318;2024-03-23T01:58:58;11.90;;;7.73;;
3916;SDS011;1973;50.518;7.318;2024-03-23T02:01:23;11.47;;;7.63;;
3916;SDS011;1973;50.518;7.318;2024-03-23T02:03:49;11.40;;;7.83;;
3916;SDS011;1973;50.518;7.318;2024-03-23T02:06:14;12.10;;;8.03;;
3916;SDS011;1973;50.518;7.318;2024-03-23T02:08:40;13.00;;;7.97;;
3916;SDS011;1973;50.518;7.318;2024-03-23T02:11:06;13.50;;;8.33;;
3916;SDS011;1973;50.518;7.318;2024-03-23T02:13:31;12.83;;;8.90;;
3916;SDS011;1973;50.518;7.318;2024-03-23T02:15:57;15.73;;;9.20;;
3916;SDS011;1973;50.518;7.318;2024-03-23T02:18:23;15.73;;;9.53;;
3916;SDS011;1973;50.518;7.318;2024-03-23T02:20:49;13.30;;;9.70;;
3916;SDS011;1973;50.518;7.318;2024-03-23T02:23:15;16.33;;;9.83;;
3916;SDS011;1973;50.518;7.318;2024-03-23T02:25:41;14.73;;;10.47;;
3916;SDS011;1973;50.518;7.318;2024-03-23T02:30:32;13.60;;;8.57;;
3916;SDS011;1973;50.518;7.318;2024-03-23T02:32:58;12.17;;;8.07;;
3916;SDS011;1973;50.518;7.318;2024-03-23T02:35:23;14.37;;;8.90;;
3916;SDS011;1973;50.518;7.318;2024-03-23T02:37:49;14.10;;;8.37;;
3916;SDS011;1973;50.518;7.318;2024-03-23T02:40:17;11.97;;;7.90;;
3916;SDS011;1973;50.518;7.318;2024-03-23T02:42:43;12.40;;;7.80;;
3916;SDS011;1973;50.518;7.318;2024-03-23T02:45:08;11.30;;;8.47;;
3916;SDS011;1973;50.518;7.318;2024-03-23T02:47:34;10.07;;;8.20;;
3916;SDS011;1973;50.518;7.318;2024-03-23T02:50:00;12.20;;;7.97;;
3916;SDS011;1973;50.518;7.318;2024-03-23T02:52:25;14.07;;;9.07;;
3916;SDS011;1973;50.518;7.318;2024-03-23T02:54:51;14.43;;;8.70;;
3916;SDS011;1973;50.518;7.318;2024-03-23T02:57:16;10.83;;;8.20;;
3916;SDS011;1973;50.518;7.318;2024-03-23T02:59:42;12.40;;;8.80;;
3916;SDS011;1973;50.518;7.318;2024-03-23T03:02:08;13.77;;;8.83;;
3916;SDS011;1973;50.518;7.318;2024-03-23T03:04:34;15.57;;;8.33;;
3916;SDS011;1973;50.518;7.318;2024-03-23T03:06:59;11.43;;;7.00;;
3916;SDS011;1973;50.518;7.318;2024-03-23T03:09:25;12.27;;;9.13;;
3916;SDS011;1973;50.518;7.318;2024-03-23T03:11:51;11.30;;;7.80;;
3916;SDS011;1973;50.518;7.318;2024-03-23T03:14:16;12.60;;;8.50;;
3916;SDS011;1973;50.518;7.318;2024-03-23T03:16:42;12.23;;;7.53;;
3916;SDS011;1973;50.518;7.318;2024-03-23T03:19:07;9.17;;;6.40;;
3916;SDS011;1973;50.518;7.318;2024-03-23T03:21:33;8.33;;;5.90;;
3916;SDS011;1973;50.518;7.318;2024-03-23T03:23:58;5.97;;;4.57;;
3916;SDS011;1973;50.518;7.318;2024-03-23T03:26:24;7.37;;;5.17;;
3916;SDS011;1973;50.518;7.318;2024-03-23T03:28:52;7.57;;;5.10;;
3916;SDS011;1973;50.518;7.318;2024-03-23T03:31:18;7.97;;;5.27;;
3916;SDS011;1973;50.518;7.318;2024-03-23T03:33:44;5.87;;;4.43;;
3916;SDS011;1973;50.518;7.318;2024-03-23T03:36:10;6.50;;;4.63;;
3916;SDS011;1973;50.518;7.318;2024-03-23T03:38:35;7.10;;;5.00;;
3916;SDS011;1973;50.518;7.318;2024-03-23T03:41:01;6.80;;;5.73;;
3916;SDS011;1973;50.518;7.318;2024-03-23T03:43:27;6.77;;;4.97;;
3916;SDS011;1973;50.518;7.318;2024-03-23T03:45:53;9.40;;;5.70;;
3916;SDS011;1973;50.518;7.318;2024-03-23T03:48:22;8.20;;;4.60;;
3916;SDS011;1973;50.518;7.318;2024-03-23T03:50:47;7.60;;;5.23;;
3916;SDS011;1973;50.518;7.318;2024-03-23T03:53:13;8.73;;;3.27;;
3916;SDS011;1973;50.518;7.318;2024-03-23T03:55:39;5.67;;;2.57;;
3916;SDS011;1973;50.518;7.318;2024-03-23T03:58:05;4.53;;;2.30;;
3916;SDS011;1973;50.518;7.318;2024-03-23T04:00:30;5.20;;;2.20;;
3916;SDS011;1973;50.518;7.318;2024-03-23T04:02:56;4.23;;;2.60;;
3916;SDS011;1973;50.518;7.318;2024-03-23T04:05:22;6.03;;;2.20;;
3916;SDS011;1973;50.518;7.318;2024-03-23T04:07:48;4.27;;;2.80;;
3916;SDS011;1973;50.518;7.318;2024-03-23T04:10:14;4.70;;;2.63;;
3916;SDS011;1973;50.518;7.318;2024-03-23T04:12:43;8.73;;;3.60;;
3916;SDS011;1973;50.518;7.318;2024-03-23T04:15:09;4.90;;;1.90;;
3916;SDS011;1973;50.518;7.318;2024-03-23T04:17:35;5.30;;;2.30;;
3916;SDS011;1973;50.518;7.318;2024-03-23T04:20:01;7.87;;;2.70;;
3916;SDS011;1973;50.518;7.318;2024-03-23T04:22:29;5.30;;;1.93;;
3916;SDS011;1973;50.518;7.318;2024-03-23T04:24:58;7.43;;;2.47;;
3916;SDS011;1973;50.518;7.318;2024-03-23T04:27:23;6.87;;;2.03;;
3916;SDS011;1973;50.518;7.318;2024-03-23T04:29:49;7.77;;;1.90;;
3916;SDS011;1973;50.518;7.318;2024-03-23T04:32:15;5.90;;;2.97;;
3916;SDS011;1973;50.518;7.318;2024-03-23T04:34:42;5.93;;;2.13;;
3916;SDS011;1973;50.518;7.318;2024-03-23T04:37:08;9.03;;;2.67;;
3916;SDS011;1973;50.518;7.318;2024-03-23T04:39:35;7.93;;;3.20;;
3916;SDS011;1973;50.518;7.318;2024-03-23T04:42:01;8.07;;;2.50;;
3916;SDS011;1973;50.518;7.318;2024-03-23T04:44:28;6.20;;;2.27;;
3916;SDS011;1973;50.518;7.318;2024-03-23T04:46:53;7.80;;;2.30;;
3916;SDS011;1973;50.518;7.318;2024-03-23T04:49:19;6.27;;;2.40;;
3916;SDS011;1973;50.518;7.318;2024-03-23T04:51:45;7.10;;;2.43;;
3916;SDS011;1973;50.518;7.318;2024-03-23T04:54:11;10.43;;;2.70;;
3916;SDS011;1973;50.518;7.318;2024-03-23T04:56:37;3.60;;;2.10;;
3916;SDS011;1973;50.518;7.318;2024-03-23T04:59:03;7.33;;;2.70;;
3916;SDS011;1973;50.518;7.318;2024-03-23T05:01:30;11.63;;;3.47;;
3916;SDS011;1973;50.518;7.318;2024-03-23T05:03:57;7.17;;;2.70;;
3916;SDS011;1973;50.518;7.318;2024-03-23T05:06:23;7.83;;;2.80;;
3916;SDS011;1973;50.518;7.318;2024-03-23T05:08:49;7.20;;;3.47;;
3916;SDS011;1973;50.518;7.318;2024-03-23T05:11:15;4.10;;;2.63;;
3916;SDS011;1973;50.518;7.318;2024-03-23T05:13:41;5.57;;;2.90;;
3916;SDS011;1973;50.518;7.318;2024-03-23T05:16:07;7.57;;;3.07;;
3916;SDS011;1973;50.518;7.318;2024-03-23T05:18:33;13.03;;;3.60;;
3916;SDS011;1973;50.518;7.318;2024-03-23T05:20:59;4.73;;;2.70;;
3916;SDS011;1973;50.518;7.318;2024-03-23T05:23:26;7.60;;;3.00;;
3916;SDS011;1973;50.518;7.318;2024-03-23T05:25:52;11.27;;;3.43;;
3916;SDS011;1973;50.518;7.318;2024-03-23T05:28:17;7.10;;;3.33;;
3916;SDS011;1973;50.518;7.318;2024-03-23T05:30:43;11.10;;;3.70;;
3916;SDS011;1973;50.518;7.318;2024-03-23T05:33:09;13.50;;;3.50;;
3916;SDS011;1973;50.518;7.318;2024-03-23T05:35:34;9.57;;;3.10;;
3916;SDS011;1973;50.518;7.318;2024-03-23T05:38:00;9.50;;;2.77;;
3916;SDS011;1973;50.518;7.318;2024-03-23T05:40:26;6.30;;;3.10;;
3916;SDS011;1973;50.518;7.318;2024-03-23T05:42:52;12.43;;;3.70;;
3916;SDS011;1973;50.518;7.318;2024-03-23T05:45:18;7.87;;;3.20;;
3916;SDS011;1973;50.518;7.318;2024-03-23T05:47:44;7.60;;;3.90;;
3916;SDS011;1973;50.518;7.318;2024-03-23T05:50:10;8.33;;;2.97;;
3916;SDS011;1973;50.518;7.318;2024-03-23T05:52:38;12.47;;;3.10;;
3916;SDS011;1973;50.518;7.318;2024-03-23T05:55:04;8.83;;;3.07;;
3916;SDS011;1973;50.518;7.318;2024-03-23T05:57:30;7.93;;;3.07;;
3916;SDS011;1973;50.518;7.318;2024-03-23T05:59:56;10.50;;;3.20;;
3916;SDS011;1973;50.518;7.318;2024-03-23T06:02:22;10.83;;;2.97;;
3916;SDS011;1973;50.518;7.318;2024-03-23T06:04:48;12.57;;;2.67;;
3916;SDS011;1973;50.518;7.318;2024-03-23T06:07:13;8.20;;;2.37;;
3916;SDS011;1973;50.518;7.318;2024-03-23T06:09:40;4.67;;;1.87;;
3916;SDS011;1973;50.518;7.318;2024-03-23T06:12:06;9.27;;;2.50;;
3916;SDS011;1973;50.518;7.318;2024-03-23T06:14:32;10.33;;;2.50;;
3916;SDS011;1973;50.518;7.318;2024-03-23T06:16:58;8.33;;;2.77;;
3916;SDS011;1973;50.518;7.318;2024-03-23T06:19:24;11.80;;;2.93;;
3916;SDS011;1973;50.518;7.318;2024-03-23T06:21:53;6.53;;;2.57;;
3916;SDS011;1973;50.518;7.318;2024-03-23T06:24:21;7.90;;;2.70;;
3916;SDS011;1973;50.518;7.318;2024-03-23T06:26:47;6.33;;;2.63;;
3916;SDS011;1973;50.518;7.318;2024-03-23T06:29:13;9.27;;;2.10;;
3916;SDS011;1973;50.518;7.318;2024-03-23T06:31:38;7.43;;;2.67;;
3916;SDS011;1973;50.518;7.318;2024-03-23T06:34:04;9.53;;;3.30;;
3916;SDS011;1973;50.518;7.318;2024-03-23T06:36:30;8.70;;;2.80;;
3916;SDS011;1973;50.518;7.318;2024-03-23T06:38:56;10.37;;;3.00;;
3916;SDS011;1973;50.518;7.318;2024-03-23T06:41:22;11.37;;;2.37;;
3916;SDS011;1973;50.518;7.318;2024-03-23T06:43:48;5.97;;;2.00;;
3916;SDS011;1973;50.518;7.318;2024-03-23T06:46:13;7.60;;;1.90;;
3916;SDS011;1973;50.518;7.318;2024-03-23T06:48:39;10.50;;;2.23;;
3916;SDS011;1973;50.518;7.318;2024-03-23T06:51:04;12.20;;;2.60;;
3916;SDS011;1973;50.518;7.318;2024-03-23T06:53:30;13.73;;;3.20;;
3916;SDS011;1973;50.518;7.318;2024-03-23T06:55:55;10.23;;;3.17;;
3916;SDS011;1973;50.518;7.318;2024-03-23T06:58:21;11.40;;;2.43;;
3916;SDS011;1973;50.518;7.318;2024-03-23T07:00:48;9.53;;;2.60;;
3916;SDS011;1973;50.518;7.318;2024-03-23T07:03:14;10.87;;;2.80;;
3916;SDS011;1973;50.518;7.318;2024-03-23T07:05:40;8.60;;;2.50;;
3916;SDS011;1973;50.518;7.318;2024-03-23T07:08:06;7.70;;;3.00;;
3916;SDS011;1973;50.518;7.318;2024-03-23T07:10:32;8.97;;;3.10;;
3916;SDS011;1973;50.518;7.318;2024-03-23T07:12:58;7.40;;;2.63;;
3916;SDS011;1973;50.518;7.318;2024-03-23T07:15:24;9.73;;;2.80;;
3916;SDS011;1973;50.518;7.318;2024-03-23T07:17:49;10.50;;;2.50;;
3916;SDS011;1973;50.518;7.318;2024-03-23T07:20:15;8.53;;;2.47;;
3916;SDS011;1973;50.518;7.318;2024-03-23T07:22:41;8.00;;;2.50;;
3916;SDS011;1973;50.518;7.318;2024-03-23T07:25:06;11.53;;;3.80;;
3916;SDS011;1973;50.518;7.318;2024-03-23T07:27:32;8.97;;;2.70;;
3916;SDS011;1973;50.518;7.318;2024-03-23T07:29:59;10.07;;;2.63;;
3916;SDS011;1973;50.518;7.318;2024-03-23T07:32:26;8.97;;;3.30;;
3916;SDS011;1973;50.518;7.318;2024-03-23T07:34:52;7.23;;;2.50;;
3916;SDS011;1973;50.518;7.318;2024-03-23T07:37:18;8.87;;;2.70;;
3916;SDS011;1973;50.518;7.318;2024-03-23T07:39:44;7.83;;;3.07;;
3916;SDS011;1973;50.518;7.318;2024-03-23T07:42:09;13.93;;;3.20;;
3916;SDS011;1973;50.518;7.318;2024-03-23T07:44:35;8.27;;;2.90;;
3916;SDS011;1973;50.518;7.318;2024-03-23T07:47:00;9.77;;;3.90;;
3916;SDS011;1973;50.518;7.318;2024-03-23T07:49:26;8.93;;;2.63;;
3916;SDS011;1973;50.518;7.318;2024-03-23T07:51:52;8.50;;;3.10;;
3916;SDS011;1973;50.518;7.318;2024-03-23T07:54:17;8.23;;;3.30;;
3916;SDS011;1973;50.518;7.318;2024-03-23T07:56:43;10.20;;;3.63;;
3916;SDS011;1973;50.518;7.318;2024-03-23T07:59:09;10.80;;;2.80;;
3916;SDS011;1973;50.518;7.318;2024-03-23T08:01:34;9.57;;;3.03;;
3916;SDS011;1973;50.518;7.318;2024-03-23T08:04:00;10.90;;;3.83;;
3916;SDS011;1973;50.518;7.318;2024-03-23T08:06:25;6.77;;;3.10;;
3916;SDS011;1973;50.518;7.318;2024-03-23T08:08:52;6.07;;;2.60;;
3916;SDS011;1973;50.518;7.318;2024-03-23T08:11:28;9.50;;;3.00;;
3916;SDS011;1973;50.518;7.318;2024-03-23T08:13:55;11.50;;;3.13;;
3916;SDS011;1973;50.518;7.318;2024-03-23T08:16:21;9.53;;;3.50;;
3916;SDS011;1973;50.518;7.318;2024-03-23T08:18:46;7.93;;;2.60;;
3916;SDS011;1973;50.518;7.318;2024-03-23T08:21:13;6.97;;;2.77;;
3916;SDS011;1973;50.518;7.318;2024-03-23T08:23:38;7.60;;;3.23;;
3916;SDS011;1973;50.518;7.318;2024-03-23T08:26:05;10.67;;;2.73;;
3916;SDS011;1973;50.518;7.318;2024-03-23T08:28:32;11.17;;;2.57;;
3916;SDS011;1973;50.518;7.318;2024-03-23T08:31:02;9.03;;;3.03;;
3916;SDS011;1973;50.518;7.318;2024-03-23T08:33:30;8.17;;;4.60;;
3916;SDS011;1973;50.518;7.318;2024-03-23T08:35:57;9.30;;;3.20;;
3916;SDS011;1973;50.518;7.318;2024-03-23T08:38:23;10.83;;;3.77;;
3916;SDS011;1973;50.518;7.318;2024-03-23T08:41:00;8.50;;;2.50;;
3916;SDS011;1973;50.518;7.318;2024-03-23T08:43:27;7.00;;;2.67;;
3916;SDS011;1973;50.518;7.318;2024-03-23T08:46:02;10.93;;;3.13;;
3916;SDS011;1973;50.518;7.318;2024-03-23T08:48:30;5.47;;;2.30;;
3916;SDS011;1973;50.518;7.318;2024-03-23T08:51:05;9.07;;;1.77;;
3916;SDS011;1973;50.518;7.318;2024-03-23T08:53:32;7.17;;;2.17;;
3916;SDS011;1973;50.518;7.318;2024-03-23T08:55:58;4.33;;;1.90;;
3916;SDS011;1973;50.518;7.318;2024-03-23T08:58:25;5.33;;;2.40;;
3916;SDS011;1973;50.518;7.318;2024-03-23T09:00:53;5.73;;;1.90;;
3916;SDS011;1973;50.518;7.318;2024-03-23T09:03:25;6.07;;;1.90;;
3916;SDS011;1973;50.518;7.318;2024-03-23T09:05:51;7.60;;;2.73;;
3916;SDS011;1973;50.518;7.318;2024-03-23T09:08:17;6.77;;;2.47;;
3916;SDS011;1973;50.518;7.318;2024-03-23T09:10:44;5.77;;;2.13;;
3916;SDS011;1973;50.518;7.318;2024-03-23T09:13:10;4.10;;;1.90;;
3916;SDS011;1973;50.518;7.318;2024-03-23T09:15:36;5.90;;;2.47;;
3916;SDS011;1973;50.518;7.318;2024-03-23T09:18:03;8.80;;;3.17;;
3916;SDS011;1973;50.518;7.318;2024-03-23T09:20:29;8.40;;;2.53;;
3916;SDS011;1973;50.518;7.318;2024-03-23T09:22:58;4.60;;;2.60;;
3916;SDS011;1973;50.518;7.318;2024-03-23T09:25:23;6.53;;;3.17;;
3916;SDS011;1973;50.518;7.318;2024-03-23T09:27:49;5.90;;;2.50;;
3916;SDS011;1973;50.518;7.318;2024-03-23T09:30:15;4.80;;;3.10;;
3916;SDS011;1973;50.518;7.318;2024-03-23T09:32:42;8.30;;;2.83;;
3916;SDS011;1973;50.518;7.318;2024-03-23T09:35:09;8.87;;;3.17;;
3916;SDS011;1973;50.518;7.318;2024-03-23T09:37:35;6.83;;;2.70;;
3916;SDS011;1973;50.518;7.318;2024-03-23T09:40:01;6.60;;;3.30;;
3916;SDS011;1973;50.518;7.318;2024-03-23T09:42:28;5.60;;;2.77;;
3916;SDS011;1973;50.518;7.318;2024-03-23T09:44:54;8.37;;;3.00;;
3916;SDS011;1973;50.518;7.318;2024-03-23T09:47:23;7.57;;;3.03;;
3916;SDS011;1973;50.518;7.318;2024-03-23T09:49:50;7.13;;;2.27;;
3916;SDS011;1973;50.518;7.318;2024-03-23T09:52:15;6.70;;;2.13;;
3916;SDS011;1973;50.518;7.318;2024-03-23T09:54:41;4.70;;;2.17;;
3916;SDS011;1973;50.518;7.318;2024-03-23T09:57:07;9.63;;;2.07;;
3916;SDS011;1973;50.518;7.318;2024-03-23T09:59:33;5.93;;;2.27;;
3916;SDS011;1973;50.518;7.318;2024-03-23T10:02:00;5.30;;;2.40;;
3916;SDS011;1973;50.518;7.318;2024-03-23T10:04:39;6.17;;;1.63;;
3916;SDS011;1973;50.518;7.318;2024-03-23T10:07:25;8.40;;;2.10;;
3916;SDS011;1973;50.518;7.318;2024-03-23T10:09:51;6.60;;;2.10;;
3916;SDS011;1973;50.518;7.318;2024-03-23T10:12:17;5.90;;;2.67;;
3916;SDS011;1973;50.518;7.318;2024-03-23T10:14:44;11.70;;;2.50;;
3916;SDS011;1973;50.518;7.318;2024-03-23T10:17:17;6.10;;;2.30;;
3916;SDS011;1973;50.518;7.318;2024-03-23T10:19:47;5.60;;;2.17;;
3916;SDS011;1973;50.518;7.318;2024-03-23T10:22:17;9.03;;;2.20;;
3916;SDS011;1973;50.518;7.318;2024-03-23T10:24:44;7.00;;;2.70;;
3916;SDS011;1973;50.518;7.318;2024-03-23T10:27:15;8.20;;;2.97;;
3916;SDS011;1973;50.518;7.318;2024-03-23T10:29:43;6.87;;;2.70;;
3916;SDS011;1973;50.518;7.318;2024-03-23T10:32:09;10.33;;;2.30;;
3916;SDS011;1973;50.518;7.318;2024-03-23T10:34:39;6.93;;;2.90;;
3916;SDS011;1973;50.518;7.318;2024-03-23T10:37:05;6.13;;;3.03;;
3916;SDS011;1973;50.518;7.318;2024-03-23T10:39:38;12.80;;;5.00;;
3916;SDS011;1973;50.518;7.318;2024-03-23T10:42:06;6.53;;;2.60;;
3916;SDS011;1973;50.518;7.318;2024-03-23T10:44:40;7.47;;;2.50;;
3916;SDS011;1973;50.518;7.318;2024-03-23T10:47:05;8.20;;;2.53;;
3916;SDS011;1973;50.518;7.318;2024-03-23T10:49:31;3.83;;;1.60;;
3916;SDS011;1973;50.518;7.318;2024-03-23T10:51:59;3.50;;;2.17;;
3916;SDS011;1973;50.518;7.318;2024-03-23T10:54:25;5.97;;;0.90;;
3916;SDS011;1973;50.518;7.318;2024-03-23T10:56:53;1.20;;;0.50;;
3916;SDS011;1973;50.518;7.318;2024-03-23T10:59:25;1.50;;;0.60;;
3916;SDS011;1973;50.518;7.318;2024-03-23T11:01:53;1.50;;;0.60;;
3916;SDS011;1973;50.518;7.318;2024-03-23T11:04:38;1.40;;;0.50;;
3916;SDS011;1973;50.518;7.318;2024-03-23T11:10:02;1.47;;;0.63;;
3916;SDS011;1973;50.518;7.318;2024-03-23T11:12:52;1.53;;;1.40;;
3916;SDS011;1973;50.518;7.318;2024-03-23T11:15:18;0.93;;;0.60;;
3916;SDS011;1973;50.518;7.318;2024-03-23T11:18:01;2.40;;;1.00;;
3916;SDS011;1973;50.518;7.318;2024-03-23T11:20:33;2.13;;;0.63;;
3916;SDS011;1973;50.518;7.318;2024-03-23T11:23:00;1.07;;;0.50;;
3916;SDS011;1973;50.518;7.318;2024-03-23T11:25:26;1.47;;;0.60;;
3916;SDS011;1973;50.518;7.318;2024-03-23T11:27:53;1.77;;;0.70;;
3916;SDS011;1973;50.518;7.318;2024-03-23T11:30:26;1.87;;;0.80;;
3916;SDS011;1973;50.518;7.318;2024-03-23T11:32:56;0.97;;;0.60;;
3916;SDS011;1973;50.518;7.318;2024-03-23T11:35:29;1.30;;;0.60;;
3916;SDS011;1973;50.518;7.318;2024-03-23T11:40:28;2.17;;;0.70;;
3916;SDS011;1973;50.518;7.318;2024-03-23T11:43:07;2.33;;;0.83;;
3916;SDS011;1973;50.518;7.318;2024-03-23T11:45:42;2.50;;;0.80;;
3916;SDS011;1973;50.518;7.318;2024-03-23T11:50:38;2.93;;;0.80;;
3916;SDS011;1973;50.518;7.318;2024-03-23T11:53:18;2.30;;;1.03;;
3916;SDS011;1973;50.518;7.318;2024-03-23T11:55:46;3.83;;;0.80;;
3916;SDS011;1973;50.518;7.318;2024-03-23T11:58:13;1.60;;;1.07;;
3916;SDS011;1973;50.518;7.318;2024-03-23T12:00:40;3.13;;;1.13;;
3916;SDS011;1973;50.518;7.318;2024-03-23T12:03:05;2.50;;;0.87;;
3916;SDS011;1973;50.518;7.318;2024-03-23T12:05:32;1.90;;;0.90;;
3916;SDS011;1973;50.518;7.318;2024-03-23T12:10:47;2.00;;;0.90;;
3916;SDS011;1973;50.518;7.318;2024-03-23T12:13:17;5.83;;;1.60;;
3916;SDS011;1973;50.518;7.318;2024-03-23T12:15:44;2.43;;;1.50;;
3916;SDS011;1973;50.518;7.318;2024-03-23T12:18:10;3.40;;;1.40;;
3916;SDS011;1973;50.518;7.318;2024-03-23T12:20:37;2.57;;;1.27;;
3916;SDS011;1973;50.518;7.318;2024-03-23T12:23:12;2.50;;;1.23;;
3916;SDS011;1973;50.518;7.318;2024-03-23T12:25:38;4.73;;;1.50;;
3916;SDS011;1973;50.518;7.318;2024-03-23T12:28:05;1.23;;;0.90;;
3916;SDS011;1973;50.518;7.318;2024-03-23T12:30:35;3.03;;;1.20;;
3916;SDS011;1973;50.518;7.318;2024-03-23T12:33:03;2.10;;;0.97;;
3916;SDS011;1973;50.518;7.318;2024-03-23T12:35:29;1.90;;;1.07;;
3916;SDS011;1973;50.518;7.318;2024-03-23T12:37:54;3.67;;;1.60;;
3916;SDS011;1973;50.518;7.318;2024-03-23T12:40:20;1.67;;;1.20;;
3916;SDS011;1973;50.518;7.318;2024-03-23T12:42:46;2.47;;;1.27;;
3916;SDS011;1973;50.518;7.318;2024-03-23T12:45:11;4.40;;;1.47;;
3916;SDS011;1973;50.518;7.318;2024-03-23T12:47:37;2.40;;;1.30;;
3916;SDS011;1973;50.518;7.318;2024-03-23T12:50:03;4.27;;;1.53;;
3916;SDS011;1973;50.518;7.318;2024-03-23T12:52:31;3.30;;;1.80;;
3916;SDS011;1973;50.518;7.318;2024-03-23T12:54:56;2.10;;;1.30;;
3916;SDS011;1973;50.518;7.318;2024-03-23T12:57:25;3.20;;;1.57;;
3916;SDS011;1973;50.518;7.318;2024-03-23T12:59:51;6.13;;;1.60;;
3916;SDS011;1973;50.518;7.318;2024-03-23T13:02:21;3.80;;;1.50;;
3916;SDS011;1973;50.518;7.318;2024-03-23T13:04:49;5.20;;;1.70;;
3916;SDS011;1973;50.518;7.318;2024-03-23T13:07:16;2.27;;;1.37;;
3916;SDS011;1973;50.518;7.318;2024-03-23T13:09:42;2.53;;;1.30;;
3916;SDS011;1973;50.518;7.318;2024-03-23T13:12:07;4.10;;;1.70;;
3916;SDS011;1973;50.518;7.318;2024-03-23T13:14:33;2.43;;;1.83;;
3916;SDS011;1973;50.518;7.318;2024-03-23T13:16:59;3.70;;;1.60;;
3916;SDS011;1973;50.518;7.318;2024-03-23T13:19:24;4.07;;;2.50;;
3916;SDS011;1973;50.518;7.318;2024-03-23T13:21:56;3.10;;;1.83;;
3916;SDS011;1973;50.518;7.318;2024-03-23T13:24:25;4.37;;;2.00;;
3916;SDS011;1973;50.518;7.318;2024-03-23T13:26:52;5.27;;;2.63;;
3916;SDS011;1973;50.518;7.318;2024-03-23T13:29:19;5.70;;;2.30;;
3916;SDS011;1973;50.518;7.318;2024-03-23T13:31:48;3.83;;;2.00;;
3916;SDS011;1973;50.518;7.318;2024-03-23T13:34:14;4.40;;;1.87;;
3916;SDS011;1973;50.518;7.318;2024-03-23T13:36:41;5.83;;;2.53;;
3916;SDS011;1973;50.518;7.318;2024-03-23T13:39:08;6.10;;;2.13;;
3916;SDS011;1973;50.518;7.318;2024-03-23T13:41:40;5.57;;;1.97;;
3916;SDS011;1973;50.518;7.318;2024-03-23T13:44:06;2.77;;;1.97;;
3916;SDS011;1973;50.518;7.318;2024-03-23T13:46:33;4.03;;;2.37;;
3916;SDS011;1973;50.518;7.318;2024-03-23T13:48:59;4.37;;;2.20;;
3916;SDS011;1973;50.518;7.318;2024-03-23T13:51:25;3.37;;;2.10;;
3916;SDS011;1973;50.518;7.318;2024-03-23T13:53:55;3.70;;;1.90;;
3916;SDS011;1973;50.518;7.318;2024-03-23T13:56:22;7.30;;;2.50;;
3916;SDS011;1973;50.518;7.318;2024-03-23T13:58:48;2.77;;;2.17;;
3916;SDS011;1973;50.518;7.318;2024-03-23T14:01:15;4.47;;;1.80;;
3916;SDS011;1973;50.518;7.318;2024-03-23T14:03:41;2.53;;;1.73;;
3916;SDS011;1973;50.518;7.318;2024-03-23T14:06:10;2.70;;;1.63;;
3916;SDS011;1973;50.518;7.318;2024-03-23T14:08:36;4.00;;;1.27;;
3916;SDS011;1973;50.518;7.318;2024-03-23T14:11:08;4.10;;;1.70;;
3916;SDS011;1973;50.518;7.318;2024-03-23T14:13:34;2.60;;;1.57;;
3916;SDS011;1973;50.518;7.318;2024-03-23T14:16:00;2.13;;;1.17;;
3916;SDS011;1973;50.518;7.318;2024-03-23T14:18:26;2.93;;;1.33;;
3916;SDS011;1973;50.518;7.318;2024-03-23T14:20:52;2.67;;;1.40;;
3916;SDS011;1973;50.518;7.318;2024-03-23T14:23:24;3.83;;;1.60;;
3916;SDS011;1973;50.518;7.318;2024-03-23T14:25:52;3.50;;;1.53;;
3916;SDS011;1973;50.518;7.318;2024-03-23T14:28:19;4.00;;;1.40;;
3916;SDS011;1973;50.518;7.318;2024-03-23T14:30:44;4.53;;;1.80;;
3916;SDS011;1973;50.518;7.318;2024-03-23T14:33:10;4.40;;;1.53;;
3916;SDS011;1973;50.518;7.318;2024-03-23T14:35:35;4.20;;;1.57;;
3916;SDS011;1973;50.518;7.318;2024-03-23T14:38:01;4.60;;;1.87;;
3916;SDS011;1973;50.518;7.318;2024-03-23T14:40:28;3.10;;;1.70;;
3916;SDS011;1973;50.518;7.318;2024-03-23T14:42:54;3.63;;;1.43;;
3916;SDS011;1973;50.518;7.318;2024-03-23T14:45:20;4.57;;;1.37;;
3916;SDS011;1973;50.518;7.318;2024-03-23T14:47:47;3.10;;;1.20;;
3916;SDS011;1973;50.518;7.318;2024-03-23T14:50:13;3.30;;;1.13;;
3916;SDS011;1973;50.518;7.318;2024-03-23T14:52:41;2.63;;;1.30;;
3916;SDS011;1973;50.518;7.318;2024-03-23T14:55:09;2.70;;;1.10;;
3916;SDS011;1973;50.518;7.318;2024-03-23T14:57:35;3.40;;;1.33;;
3916;SDS011;1973;50.518;7.318;2024-03-23T15:00:00;2.57;;;1.27;;
3916;SDS011;1973;50.518;7.318;2024-03-23T15:02:26;2.40;;;1.00;;
3916;SDS011;1973;50.518;7.318;2024-03-23T15:04:53;2.50;;;1.10;;
3916;SDS011;1973;50.518;7.318;2024-03-23T15:07:19;2.90;;;1.27;;
3916;SDS011;1973;50.518;7.318;2024-03-23T15:09:45;3.37;;;1.40;;
3916;SDS011;1973;50.518;7.318;2024-03-23T15:12:10;3.30;;;1.80;;
3916;SDS011;1973;50.518;7.318;2024-03-23T15:14:36;3.10;;;1.47;;
3916;SDS011;1973;50.518;7.318;2024-03-23T15:17:01;2.67;;;1.20;;
3916;SDS011;1973;50.518;7.318;2024-03-23T15:19:32;5.03;;;1.37;;
3916;SDS011;1973;50.518;7.318;2024-03-23T15:21:57;2.00;;;0.70;;
3916;SDS011;1973;50.518;7.318;2024-03-23T15:24:23;2.03;;;0.80;;
3916;SDS011;1973;50.518;7.318;2024-03-23T15:26:49;1.10;;;0.60;;
3916;SDS011;1973;50.518;7.318;2024-03-23T15:29:17;2.43;;;0.90;;
3916;SDS011;1973;50.518;7.318;2024-03-23T15:31:43;1.80;;;0.87;;
3916;SDS011;1973;50.518;7.318;2024-03-23T15:34:10;5.83;;;3.13;;
3916;SDS011;1973;50.518;7.318;2024-03-23T15:36:39;5.10;;;3.50;;
3916;SDS011;1973;50.518;7.318;2024-03-23T15:39:05;3.73;;;1.60;;
3916;SDS011;1973;50.518;7.318;2024-03-23T15:41:31;5.17;;;1.43;;
3916;SDS011;1973;50.518;7.318;2024-03-23T15:43:58;1.43;;;0.80;;
3916;SDS011;1973;50.518;7.318;2024-03-23T15:46:23;2.37;;;0.90;;
3916;SDS011;1973;50.518;7.318;2024-03-23T15:48:50;2.17;;;0.90;;
3916;SDS011;1973;50.518;7.318;2024-03-23T15:51:16;1.27;;;0.90;;
3916;SDS011;1973;50.518;7.318;2024-03-23T15:53:43;2.37;;;0.97;;
3916;SDS011;1973;50.518;7.318;2024-03-23T15:56:08;2.07;;;0.90;;
3916;SDS011;1973;50.518;7.318;2024-03-23T15:58:35;4.20;;;1.00;;
3916;SDS011;1973;50.518;7.318;2024-03-23T16:01:01;1.70;;;0.70;;
3916;SDS011;1973;50.518;7.318;2024-03-23T16:03:32;2.03;;;0.70;;
3916;SDS011;1973;50.518;7.318;2024-03-23T16:05:59;2.60;;;0.83;;
3916;SDS011;1973;50.518;7.318;2024-03-23T16:08:25;1.30;;;0.80;;
3916;SDS011;1973;50.518;7.318;2024-03-23T16:10:52;2.20;;;1.10;;
3916;SDS011;1973;50.518;7.318;2024-03-23T16:13:18;2.20;;;0.80;;
3916;SDS011;1973;50.518;7.318;2024-03-23T16:15:44;2.20;;;0.90;;
3916;SDS011;1973;50.518;7.318;2024-03-23T16:18:10;2.83;;;1.40;;